Time;durP1;ratioP1;P1;durP2;ratioP2;P2;SDS_P1;SDS_P2;PMS_P1;PMS_P2;Temp;Humidity;BMP_temperature;BMP_pressure;BME280_temperature;BME280_humidity;BME280_pressure;Samples;Min_cycle;Max_cycle;Signal;HPM_P1;HPM_P2
2022/09/15 00:01:44;;;;;;;10.00;7.43;;;;;;;;;;5052241;28;20068;-74
2022/09/15 00:04:10;;;;;;;9.52;7.10;;;;;;;;;;5053924;28;20084;-74
2022/09/15 00:06:36;;;;;;;12.65;7.75;;;;;;;;;;5053412;28;20037;-74
2022/09/15 00:09:03;;;;;;;14.27;7.07;;;;;;;;;;5052079;28;20036;-74
2022/09/15 00:11:31;;;;;;;11.77;6.55;;;;;;;;;;5051872;28;20032;-74
2022/09/15 00:13:59;;;;;;;11.82;6.57;;;;;;;;;;5053094;28;20091;-74
2022/09/15 00:16:26;;;;;;;9.32;5.13;;;;;;;;;;5035192;28;20041;-74
2022/09/15 00:18:52;;;;;;;8.05;6.07;;;;;;;;;;5052959;28;20068;-74
2022/09/15 00:21:23;;;;;;;10.88;6.35;;;;;;;;;;5053639;28;20040;-74
2022/09/15 00:23:50;;;;;;;8.98;5.50;;;;;;;;;;5035363;28;20041;-75
2022/09/15 00:26:18;;;;;;;11.15;6.38;;;;;;;;;;5051926;28;20511;-74
2022/09/15 00:28:44;;;;;;;9.23;5.00;;;;;;;;;;5051828;28;20037;-75
2022/09/15 00:31:12;;;;;;;8.63;5.43;;;;;;;;;;5052302;28;20044;-74
2022/09/15 00:33:38;;;;;;;8.02;4.30;;;;;;;;;;5051504;28;20040;-74
2022/09/15 00:36:07;;;;;;;7.07;4.28;;;;;;;;;;5051722;28;20036;-74
2022/09/15 00:38:33;;;;;;;10.40;4.60;;;;;;;;;;5052367;28;20036;-74
2022/09/15 00:41:00;;;;;;;7.88;3.53;;;;;;;;;;5051601;28;20047;-74
2022/09/15 00:43:43;;;;;;;13.30;4.70;;;;;;;;;;5056283;28;20045;-74
2022/09/15 00:46:10;;;;;;;11.93;4.43;;;;;;;;;;5058268;28;20132;-74
2022/09/15 00:48:38;;;;;;;10.82;4.15;;;;;;;;;;5053316;28;20086;-74
2022/09/15 00:51:05;;;;;;;11.27;4.10;;;;;;;;;;5069971;28;20486;-74
2022/09/15 00:53:32;;;;;;;8.25;3.80;;;;;;;;;;5077500;28;20123;-74
2022/09/15 00:55:59;;;;;;;8.73;3.70;;;;;;;;;;5052660;28;20374;-74
2022/09/15 00:58:30;;;;;;;9.63;3.97;;;;;;;;;;5052938;28;20072;-74
2022/09/15 01:00:57;;;;;;;7.28;4.13;;;;;;;;;;5066883;28;20525;-69
2022/09/15 01:03:24;;;;;;;9.90;4.38;;;;;;;;;;5071168;28;20131;-69
2022/09/15 01:05:52;;;;;;;8.32;4.82;;;;;;;;;;5070343;28;20048;-69
2022/09/15 01:08:23;;;;;;;6.32;4.57;;;;;;;;;;5071866;28;20501;-69
2022/09/15 01:10:50;;;;;;;9.57;4.78;;;;;;;;;;5053453;28;20470;-69
2022/09/15 01:13:17;;;;;;;12.77;4.90;;;;;;;;;;5056508;28;20068;-69
2022/09/15 01:15:43;;;;;;;9.75;4.63;;;;;;;;;;5070712;28;20043;-74
2022/09/15 01:18:16;;;;;;;11.88;4.68;;;;;;;;;;5054570;28;20086;-74
2022/09/15 01:20:47;;;;;;;8.00;4.20;;;;;;;;;;5051204;28;20497;-74
2022/09/15 01:23:16;;;;;;;8.93;3.97;;;;;;;;;;5053796;28;20044;-74
2022/09/15 01:25:51;;;;;;;9.88;4.13;;;;;;;;;;5038670;28;20048;-74
2022/09/15 01:28:36;;;;;;;14.88;4.90;;;;;;;;;;5055278;28;20056;-74
2022/09/15 01:31:08;;;;;;;9.25;3.92;;;;;;;;;;5066900;28;20079;-74
2022/09/15 01:33:49;;;;;;;9.57;4.07;;;;;;;;;;5076069;28;20501;-74
2022/09/15 01:36:21;;;;;;;7.35;3.97;;;;;;;;;;5063256;28;20041;-69
2022/09/15 01:38:56;;;;;;;7.25;3.80;;;;;;;;;;5073959;28;20047;-69
2022/09/15 01:41:48;;;;;;;8.88;4.13;;;;;;;;;;5074326;28;20136;-69
2022/09/15 01:44:16;;;;;;;8.52;3.65;;;;;;;;;;5072401;28;20063;-73
2022/09/15 01:46:46;;;;;;;9.13;3.80;;;;;;;;;;5061057;28;20049;-74
2022/09/15 01:49:14;;;;;;;9.20;2.88;;;;;;;;;;5055057;28;20048;-74
2022/09/15 01:51:41;;;;;;;8.52;3.05;;;;;;;;;;5056283;28;20041;-69
2022/09/15 01:54:08;;;;;;;8.10;2.72;;;;;;;;;;5071387;28;20181;-69
2022/09/15 01:56:36;;;;;;;8.43;2.47;;;;;;;;;;5073958;28;20370;-69
2022/09/15 01:59:02;;;;;;;8.70;2.22;;;;;;;;;;5073707;28;20040;-69
2022/09/15 02:01:48;;;;;;;10.50;2.30;;;;;;;;;;5066920;28;20058;-69
2022/09/15 02:04:17;;;;;;;6.82;2.28;;;;;;;;;;5050970;28;20377;-69
2022/09/15 02:06:50;;;;;;;8.80;2.17;;;;;;;;;;5054587;28;20124;-71
2022/09/15 02:09:37;;;;;;;11.68;2.00;;;;;;;;;;5053995;28;20040;-69
2022/09/15 02:12:03;;;;;;;;;;;;;;;;;;5054798;28;20035;-68
2022/09/15 02:14:48;;;;;;;10.25;1.23;;;;;;;;;;5053447;28;20285;-68
2022/09/15 02:17:16;;;;;;;9.20;1.10;;;;;;;;;;5036870;28;20044;-69
2022/09/15 02:19:46;;;;;;;5.72;0.90;;;;;;;;;;5054965;28;20578;-69
2022/09/15 02:22:33;;;;;;;4.93;0.95;;;;;;;;;;5042028;28;20128;-69
2022/09/15 02:25:01;;;;;;;6.10;0.90;;;;;;;;;;5053611;28;20111;-68
2022/09/15 02:27:29;;;;;;;5.65;0.90;;;;;;;;;;5053099;28;20037;-69
2022/09/15 02:29:57;;;;;;;5.10;1.10;;;;;;;;;;5053008;28;20064;-69
2022/09/15 02:32:24;;;;;;;3.38;0.80;;;;;;;;;;5053177;28;20041;-69
2022/09/15 02:34:51;;;;;;;6.35;1.10;;;;;;;;;;5051400;28;20481;-69
2022/09/15 02:37:17;;;;;;;7.28;1.20;;;;;;;;;;5055089;28;20045;-68
2022/09/15 02:39:46;;;;;;;5.65;0.82;;;;;;;;;;5057525;28;20080;-69
2022/09/15 02:42:12;;;;;;;8.10;1.17;;;;;;;;;;5044787;28;20087;-68
2022/09/15 02:44:39;;;;;;;5.55;1.08;;;;;;;;;;5052913;28;20037;-68
2022/09/15 02:47:05;;;;;;;8.18;0.98;;;;;;;;;;5055210;28;20490;-74
2022/09/15 02:49:31;;;;;;;9.13;1.10;;;;;;;;;;5053921;28;20076;-74
2022/09/15 02:51:57;;;;;;;6.63;1.00;;;;;;;;;;5036887;28;20099;-74
2022/09/15 02:54:23;;;;;;;7.70;1.20;;;;;;;;;;5047839;28;20081;-74
2022/09/15 02:56:49;;;;;;;8.35;1.20;;;;;;;;;;5045524;28;20051;-74
2022/09/15 02:59:15;;;;;;;5.10;0.85;;;;;;;;;;5053524;28;20041;-74
2022/09/15 03:01:41;;;;;;;4.25;0.63;;;;;;;;;;5053453;28;20049;-74
2022/09/15 03:04:08;;;;;;;8.18;0.90;;;;;;;;;;5054847;28;20077;-74
2022/09/15 03:06:34;;;;;;;6.18;0.90;;;;;;;;;;5045477;28;20045;-74
2022/09/15 03:09:01;;;;;;;6.18;0.80;;;;;;;;;;5047983;28;20444;-74
2022/09/15 03:11:28;;;;;;;4.97;0.85;;;;;;;;;;5053995;28;20041;-74
2022/09/15 03:13:56;;;;;;;7.47;0.93;;;;;;;;;;5054735;28;20474;-74
2022/09/15 03:16:22;;;;;;;5.13;0.85;;;;;;;;;;5067626;28;20496;-74
2022/09/15 03:18:48;;;;;;;6.05;1.20;;;;;;;;;;5054716;28;20037;-73
2022/09/15 03:21:15;;;;;;;6.25;0.98;;;;;;;;;;5053493;28;20036;-74
2022/09/15 03:23:42;;;;;;;6.97;1.00;;;;;;;;;;5053274;28;20080;-74
2022/09/15 03:26:09;;;;;;;4.20;0.80;;;;;;;;;;5052920;28;20041;-74
2022/09/15 03:28:35;;;;;;;4.70;0.85;;;;;;;;;;5053418;28;20049;-74
2022/09/15 03:31:01;;;;;;;6.50;0.90;;;;;;;;;;5052850;28;20041;-74
2022/09/15 03:33:28;;;;;;;4.47;0.82;;;;;;;;;;5053226;28;20489;-74
2022/09/15 03:35:55;;;;;;;5.68;0.77;;;;;;;;;;5053130;28;20393;-74
2022/09/15 03:38:22;;;;;;;5.78;1.15;;;;;;;;;;5052978;28;20048;-74
2022/09/15 03:41:03;;;;;;;7.38;0.90;;;;;;;;;;5053092;28;20068;-74
2022/09/15 03:43:30;;;;;;;6.28;1.30;;;;;;;;;;5054186;28;20045;-74
2022/09/15 03:45:56;;;;;;;6.05;0.93;;;;;;;;;;5052537;28;20086;-74
2022/09/15 03:48:23;;;;;;;4.13;0.80;;;;;;;;;;5054282;28;20107;-74
2022/09/15 03:50:49;;;;;;;4.72;0.93;;;;;;;;;;5052722;28;20044;-74
2022/09/15 03:53:16;;;;;;;6.53;1.00;;;;;;;;;;5062962;28;20130;-69
2022/09/15 03:55:42;;;;;;;5.28;0.80;;;;;;;;;;5072854;28;20086;-69
2022/09/15 03:58:08;;;;;;;6.68;0.93;;;;;;;;;;5071854;28;20413;-69
2022/09/15 04:00:34;;;;;;;7.97;1.10;;;;;;;;;;5055092;28;20049;-69
2022/09/15 04:03:00;;;;;;;8.60;1.08;;;;;;;;;;5053423;28;20099;-69
2022/09/15 04:05:27;;;;;;;4.95;0.85;;;;;;;;;;5052014;28;20436;-73
2022/09/15 04:07:53;;;;;;;6.85;0.85;;;;;;;;;;5052226;28;20049;-74
2022/09/15 04:10:19;;;;;;;5.78;0.95;;;;;;;;;;5052176;28;20056;-74
2022/09/15 04:12:45;;;;;;;5.18;0.80;;;;;;;;;;5052219;28;20111;-74
2022/09/15 04:15:11;;;;;;;5.60;1.30;;;;;;;;;;5051585;28;20049;-69
2022/09/15 04:17:37;;;;;;;7.40;0.90;;;;;;;;;;5052755;28;20044;-70
2022/09/15 04:20:03;;;;;;;9.02;1.20;;;;;;;;;;5050685;28;20048;-69
2022/09/15 04:22:31;;;;;;;3.90;1.13;;;;;;;;;;5051436;28;20105;-74
2022/09/15 04:24:57;;;;;;;6.35;0.95;;;;;;;;;;5052455;28;20049;-74
2022/09/15 04:27:23;;;;;;;7.90;1.15;;;;;;;;;;5050811;28;20064;-74
2022/09/15 04:29:52;;;;;;;4.78;1.00;;;;;;;;;;5049890;28;20508;-74
2022/09/15 04:32:19;;;;;;;6.50;0.90;;;;;;;;;;5056617;28;20051;-74
2022/09/15 04:34:45;;;;;;;7.05;0.90;;;;;;;;;;5055617;28;20126;-74
2022/09/15 04:37:12;;;;;;;8.20;1.52;;;;;;;;;;5051909;28;20045;-74
2022/09/15 04:39:38;;;;;;;7.65;1.27;;;;;;;;;;5053310;28;20041;-74
2022/09/15 04:42:05;;;;;;;5.22;1.13;;;;;;;;;;5051988;28;20398;-74
2022/09/15 04:44:31;;;;;;;5.75;0.90;;;;;;;;;;5052003;28;20045;-74
2022/09/15 04:46:58;;;;;;;7.07;1.10;;;;;;;;;;5051943;28;20048;-75
2022/09/15 04:49:24;;;;;;;9.13;1.17;;;;;;;;;;5051667;28;20044;-74
2022/09/15 04:51:54;;;;;;;8.38;1.48;;;;;;;;;;5053110;28;20443;-73
2022/09/15 04:54:20;;;;;;;10.10;1.60;;;;;;;;;;5035062;28;20044;-74
2022/09/15 04:56:47;;;;;;;6.45;1.20;;;;;;;;;;5051027;28;20037;-74
2022/09/15 04:59:17;;;;;;;4.95;1.00;;;;;;;;;;5051771;28;20049;-75
2022/09/15 05:01:44;;;;;;;6.93;1.20;;;;;;;;;;5052611;28;20524;-74
2022/09/15 05:04:10;;;;;;;7.07;1.35;;;;;;;;;;5051733;28;20049;-74
2022/09/15 05:06:37;;;;;;;9.15;1.17;;;;;;;;;;5051645;28;20040;-75
2022/09/15 05:09:04;;;;;;;5.82;1.17;;;;;;;;;;5051742;28;20587;-75
2022/09/15 05:11:31;;;;;;;6.50;1.50;;;;;;;;;;5052978;28;20408;-74
2022/09/15 05:14:01;;;;;;;9.77;3.28;;;;;;;;;;5053357;28;20448;-75
2022/09/15 05:16:28;;;;;;;7.97;3.30;;;;;;;;;;5051662;28;20045;-75
2022/09/15 05:18:55;;;;;;;7.55;1.30;;;;;;;;;;5035514;28;20044;-75
2022/09/15 05:21:21;;;;;;;6.05;1.45;;;;;;;;;;5052039;28;20076;-74
2022/09/15 05:23:49;;;;;;;9.30;1.20;;;;;;;;;;5043562;28;20045;-75
2022/09/15 05:26:16;;;;;;;7.38;1.17;;;;;;;;;;5050975;28;20045;-69
2022/09/15 05:28:42;;;;;;;5.05;0.98;;;;;;;;;;5068532;28;20101;-69
2022/09/15 05:31:10;;;;;;;7.78;1.17;;;;;;;;;;5069623;28;20052;-69
2022/09/15 05:33:36;;;;;;;3.85;0.98;;;;;;;;;;5070396;28;20132;-69
2022/09/15 05:36:03;;;;;;;6.55;1.10;;;;;;;;;;5070830;28;20041;-69
2022/09/15 05:38:30;;;;;;;7.25;1.20;;;;;;;;;;5070427;28;20048;-69
2022/09/15 05:41:06;;;;;;;6.05;1.00;;;;;;;;;;5053851;28;20135;-74
2022/09/15 05:43:33;;;;;;;7.28;1.20;;;;;;;;;;5052454;28;20051;-74
2022/09/15 05:45:59;;;;;;;6.55;1.05;;;;;;;;;;5053086;28;20045;-74
2022/09/15 05:48:25;;;;;;;3.63;0.98;;;;;;;;;;5052171;28;20464;-74
2022/09/15 05:50:52;;;;;;;7.65;1.48;;;;;;;;;;5053776;28;20413;-74
2022/09/15 05:53:19;;;;;;;6.50;1.10;;;;;;;;;;5051055;28;20095;-74
2022/09/15 05:55:45;;;;;;;5.35;0.90;;;;;;;;;;5051660;28;20060;-74
2022/09/15 05:58:11;;;;;;;5.03;1.13;;;;;;;;;;5052597;28;20073;-74
2022/09/15 06:00:37;;;;;;;5.53;1.17;;;;;;;;;;5050871;28;20049;-75
2022/09/15 06:03:03;;;;;;;7.00;1.70;;;;;;;;;;5051154;28;20548;-75
2022/09/15 06:05:30;;;;;;;6.07;1.45;;;;;;;;;;5064542;28;20053;-69
2022/09/15 06:07:56;;;;;;;8.95;2.72;;;;;;;;;;5065868;28;20441;-75
2022/09/15 06:10:23;;;;;;;6.75;1.30;;;;;;;;;;5065362;28;20052;-69
2022/09/15 06:12:52;;;;;;;8.25;1.10;;;;;;;;;;5073491;28;20455;-69
2022/09/15 06:15:19;;;;;;;7.80;1.17;;;;;;;;;;5074685;28;20051;-69
2022/09/15 06:17:45;;;;;;;9.05;1.60;;;;;;;;;;5056991;28;20128;-69
2022/09/15 06:20:11;;;;;;;7.30;1.05;;;;;;;;;;5066440;28;20090;-74
2022/09/15 06:22:37;;;;;;;7.18;1.20;;;;;;;;;;5054464;28;20041;-74
2022/09/15 06:25:04;;;;;;;10.93;1.98;;;;;;;;;;5054625;28;20033;-74
2022/09/15 06:27:30;;;;;;;8.90;1.10;;;;;;;;;;5054899;28;20098;-74
2022/09/15 06:29:56;;;;;;;6.63;1.38;;;;;;;;;;5054937;28;20107;-75
2022/09/15 06:32:22;;;;;;;3.80;0.82;;;;;;;;;;5055341;28;20048;-74
2022/09/15 06:34:48;;;;;;;6.45;1.10;;;;;;;;;;5055648;28;20037;-75
2022/09/15 06:37:14;;;;;;;4.20;0.95;;;;;;;;;;5054354;28;20048;-74
2022/09/15 06:39:44;;;;;;;5.70;0.95;;;;;;;;;;5054371;28;20037;-75
2022/09/15 06:42:10;;;;;;;8.38;1.10;;;;;;;;;;5055617;28;20553;-74
2022/09/15 06:44:36;;;;;;;10.73;1.20;;;;;;;;;;5054236;28;20132;-74
2022/09/15 06:47:02;;;;;;;5.28;1.02;;;;;;;;;;5037536;28;20102;-75
2022/09/15 06:49:30;;;;;;;5.82;0.90;;;;;;;;;;5061206;28;20040;-69
2022/09/15 06:51:56;;;;;;;10.45;2.00;;;;;;;;;;5072975;28;20045;-69
2022/09/15 06:54:22;;;;;;;7.22;1.02;;;;;;;;;;5072637;28;20040;-69
2022/09/15 06:56:49;;;;;;;8.07;1.30;;;;;;;;;;5073464;28;20493;-74
2022/09/15 06:59:15;;;;;;;6.50;1.10;;;;;;;;;;5056357;28;20037;-75
2022/09/15 07:01:42;;;;;;;5.70;1.10;;;;;;;;;;5055503;28;20057;-74
2022/09/15 07:04:08;;;;;;;6.53;1.00;;;;;;;;;;5055510;28;20049;-76
2022/09/15 07:06:36;;;;;;;11.00;1.77;;;;;;;;;;5038059;28;20465;-75
2022/09/15 07:09:02;;;;;;;6.72;0.90;;;;;;;;;;5054682;28;20041;-74
2022/09/15 07:11:28;;;;;;;5.78;1.00;;;;;;;;;;5060860;28;20037;-69
2022/09/15 07:13:54;;;;;;;5.72;1.10;;;;;;;;;;5072522;28;20083;-69
2022/09/15 07:16:21;;;;;;;5.93;1.10;;;;;;;;;;5072815;28;20415;-70
2022/09/15 07:18:48;;;;;;;11.18;1.10;;;;;;;;;;5073295;28;20124;-70
2022/09/15 07:21:16;;;;;;;7.15;1.20;;;;;;;;;;5072182;28;20048;-69
2022/09/15 07:23:42;;;;;;;6.63;1.02;;;;;;;;;;5072451;28;20405;-69
2022/09/15 07:26:13;;;;;;;9.98;1.40;;;;;;;;;;5072637;28;20049;-70
2022/09/15 07:28:41;;;;;;;5.55;1.00;;;;;;;;;;5070362;28;20098;-70
2022/09/15 07:31:08;;;;;;;5.35;1.00;;;;;;;;;;5059655;28;20132;-70
2022/09/15 07:33:34;;;;;;;9.63;1.20;;;;;;;;;;5061281;28;20032;-69
2022/09/15 07:36:01;;;;;;;4.80;1.15;;;;;;;;;;5060096;28;20040;-76
2022/09/15 07:38:27;;;;;;;7.72;0.95;;;;;;;;;;5054413;28;20040;-75
2022/09/15 07:40:53;;;;;;;3.60;0.90;;;;;;;;;;5044093;28;20052;-74
2022/09/15 07:43:20;;;;;;;9.63;1.20;;;;;;;;;;5050682;28;20535;-75
2022/09/15 07:45:46;;;;;;;8.60;1.10;;;;;;;;;;5054544;28;20037;-74
2022/09/15 07:48:12;;;;;;;7.00;0.90;;;;;;;;;;5063595;28;20531;-69
2022/09/15 07:50:38;;;;;;;5.63;1.00;;;;;;;;;;5055441;28;20370;-69
2022/09/15 07:53:04;;;;;;;5.28;1.05;;;;;;;;;;5071585;28;20066;-69
2022/09/15 07:55:31;;;;;;;5.82;1.13;;;;;;;;;;5071761;28;20040;-69
2022/09/15 07:58:00;;;;;;;6.88;0.90;;;;;;;;;;5073180;28;20040;-70
2022/09/15 08:00:26;;;;;;;4.53;0.85;;;;;;;;;;5058396;28;20049;-75
2022/09/15 08:02:53;;;;;;;7.68;1.10;;;;;;;;;;5036383;28;20481;-75
2022/09/15 08:05:19;;;;;;;4.25;1.05;;;;;;;;;;5052881;28;20044;-75
2022/09/15 08:07:45;;;;;;;8.55;0.90;;;;;;;;;;5054100;28;20079;-76
2022/09/15 08:10:11;;;;;;;4.53;1.00;;;;;;;;;;5052873;28;20044;-76
2022/09/15 08:12:37;;;;;;;4.60;0.85;;;;;;;;;;5052887;28;20455;-76
2022/09/15 08:15:04;;;;;;;3.28;0.73;;;;;;;;;;5054001;28;20073;-75
2022/09/15 08:17:30;;;;;;;5.80;1.00;;;;;;;;;;5035934;28;20084;-76
2022/09/15 08:19:56;;;;;;;4.50;0.80;;;;;;;;;;5052775;28;20491;-76
2022/09/15 08:22:22;;;;;;;5.28;0.90;;;;;;;;;;5052672;28;20078;-71
2022/09/15 08:24:48;;;;;;;6.88;0.68;;;;;;;;;;5070305;28;20123;-71
2022/09/15 08:27:14;;;;;;;3.00;0.75;;;;;;;;;;5072822;28;20048;-74
2022/09/15 08:29:40;;;;;;;4.32;0.90;;;;;;;;;;5071600;28;20036;-76
2022/09/15 08:32:06;;;;;;;3.90;1.30;;;;;;;;;;5089026;28;20431;-75
2022/09/15 08:34:32;;;;;;;4.78;0.80;;;;;;;;;;5072857;28;20415;-75
2022/09/15 08:36:58;;;;;;;2.85;0.70;;;;;;;;;;5067430;28;20037;-77
2022/09/15 08:39:24;;;;;;;8.05;0.90;;;;;;;;;;5054460;28;20040;-76
2022/09/15 08:41:52;;;;;;;4.93;0.90;;;;;;;;;;5038912;28;20028;-69
2022/09/15 08:44:21;;;;;;;5.03;0.80;;;;;;;;;;5071261;28;20098;-70
2022/09/15 08:46:50;;;;;;;7.32;0.90;;;;;;;;;;5058036;28;20044;-76
2022/09/15 08:49:21;;;;;;;3.65;0.90;;;;;;;;;;5052178;28;20044;-77
2022/09/15 08:51:49;;;;;;;4.82;1.25;;;;;;;;;;5052130;28;20127;-76
2022/09/15 08:54:20;;;;;;;11.05;1.30;;;;;;;;;;5055879;28;20044;-77
2022/09/15 08:56:47;;;;;;;5.07;1.20;;;;;;;;;;5060751;28;20045;-76
2022/09/15 08:59:17;;;;;;;7.13;1.00;;;;;;;;;;5056577;28;20033;-70
2022/09/15 09:01:52;;;;;;;4.90;0.93;;;;;;;;;;5070744;28;20048;-71
2022/09/15 09:04:28;;;;;;;5.93;1.08;;;;;;;;;;5050720;28;20106;-74
2022/09/15 09:07:12;;;;;;;4.30;0.93;;;;;;;;;;5051465;28;20390;-76
2022/09/15 09:09:49;;;;;;;4.30;0.90;;;;;;;;;;5065670;28;20080;-76
2022/09/15 09:12:15;;;;;;;4.13;0.73;;;;;;;;;;5051637;28;20474;-76
2022/09/15 09:14:44;;;;;;;6.47;0.82;;;;;;;;;;5051598;28;20033;-77
2022/09/15 09:17:21;;;;;;;6.75;1.05;;;;;;;;;;5045884;28;20119;-73
2022/09/15 09:19:57;;;;;;;7.72;0.95;;;;;;;;;;5053666;28;20079;-71
2022/09/15 09:22:25;;;;;;;6.25;0.90;;;;;;;;;;5070637;28;20040;-70
2022/09/15 09:24:52;;;;;;;3.88;0.80;;;;;;;;;;5069844;28;20047;-70
2022/09/15 09:27:21;;;;;;;4.05;0.70;;;;;;;;;;5070362;28;20041;-70
2022/09/15 09:29:48;;;;;;;3.20;0.70;;;;;;;;;;5068000;28;20032;-71
2022/09/15 09:32:20;;;;;;;5.03;0.70;;;;;;;;;;5071873;28;20064;-71
2022/09/15 09:35:01;;;;;;;5.25;0.90;;;;;;;;;;5069999;28;20044;-70
2022/09/15 09:37:27;;;;;;;2.88;0.73;;;;;;;;;;5071677;28;20032;-70
2022/09/15 09:39:53;;;;;;;3.38;0.50;;;;;;;;;;5053590;28;20044;-70
2022/09/15 09:42:22;;;;;;;4.65;0.57;;;;;;;;;;5071947;28;20432;-71
2022/09/15 09:44:48;;;;;;;3.25;0.60;;;;;;;;;;5073398;28;20044;-70
2022/09/15 09:47:14;;;;;;;2.58;0.60;;;;;;;;;;5060282;28;20044;-72
2022/09/15 09:49:43;;;;;;;4.68;0.82;;;;;;;;;;5074339;28;20083;-70
2022/09/15 09:52:11;;;;;;;2.35;0.60;;;;;;;;;;5074666;28;20040;-75
2022/09/15 09:54:37;;;;;;;5.05;0.70;;;;;;;;;;5038462;28;20460;-76
2022/09/15 09:57:23;;;;;;;5.07;0.82;;;;;;;;;;5054583;28;20045;-71
2022/09/15 09:59:50;;;;;;;4.95;0.90;;;;;;;;;;5047453;28;20822;-70
2022/09/15 10:02:19;;;;;;;9.43;1.15;;;;;;;;;;5060161;28;20076;-72
2022/09/15 10:04:47;;;;;;;4.70;0.90;;;;;;;;;;5066142;28;20036;-71
2022/09/15 10:07:14;;;;;;;4.55;0.85;;;;;;;;;;5067745;28;20485;-71
2022/09/15 10:09:48;;;;;;;2.72;0.50;;;;;;;;;;5074862;28;20115;-69
2022/09/15 10:12:19;;;;;;;3.92;0.50;;;;;;;;;;5074339;28;20401;-69
2022/09/15 10:14:50;;;;;;;2.38;0.60;;;;;;;;;;5073387;28;20045;-69
2022/09/15 10:17:25;;;;;;;3.53;0.60;;;;;;;;;;5074468;28;20374;-76
2022/09/15 10:19:53;;;;;;;2.97;0.50;;;;;;;;;;5054969;28;20120;-76
2022/09/15 10:22:21;;;;;;;3.67;0.68;;;;;;;;;;5055183;28;20044;-76
2022/09/15 10:24:48;;;;;;;4.60;0.60;;;;;;;;;;5054555;28;20379;-76
2022/09/15 10:27:18;;;;;;;3.38;0.80;;;;;;;;;;5038109;28;20032;-76
2022/09/15 10:29:44;;;;;;;4.13;0.70;;;;;;;;;;5068223;28;20045;-76
2022/09/15 10:32:24;;;;;;;5.93;0.90;;;;;;;;;;5054652;28;20099;-76
2022/09/15 10:34:58;;;;;;;6.75;1.00;;;;;;;;;;5054652;28;20110;-77
2022/09/15 10:37:27;;;;;;;10.18;0.90;;;;;;;;;;5055929;28;20120;-79
2022/09/15 10:39:54;;;;;;;4.65;0.95;;;;;;;;;;5057691;28;20037;-72
2022/09/15 10:42:39;;;;;;;5.50;0.82;;;;;;;;;;5073581;28;20040;-72
2022/09/15 10:45:18;;;;;;;8.00;0.77;;;;;;;;;;5072501;28;20036;-73
2022/09/15 10:47:53;;;;;;;4.22;0.80;;;;;;;;;;5023633;28;20047;-71
2022/09/15 10:50:19;;;;;;;;;;;;;;;;;;5054096;28;20048;-72
2022/09/15 10:53:11;;;;;;;7.32;1.10;;;;;;;;;;5073067;28;19920;-72
2022/09/15 10:55:44;;;;;;;4.28;0.98;;;;;;;;;;5054432;28;20066;-78
2022/09/15 10:58:10;;;;;;;3.63;0.77;;;;;;;;;;5064187;28;20047;-72
2022/09/15 11:00:44;;;;;;;5.93;0.93;;;;;;;;;;5073007;28;20056;-71
2022/09/15 11:03:10;;;;;;;4.97;0.90;;;;;;;;;;5073441;28;20056;-77
2022/09/15 11:05:50;;;;;;;3.97;0.93;;;;;;;;;;5072532;28;20042;-72
2022/09/15 11:08:17;;;;;;;4.50;0.90;;;;;;;;;;5065484;28;20045;-77
2022/09/15 11:10:51;;;;;;;4.65;0.80;;;;;;;;;;5067947;28;20102;-76
2022/09/15 11:13:17;;;;;;;4.82;0.90;;;;;;;;;;5073718;28;20401;-76
2022/09/15 11:15:43;;;;;;;4.88;0.80;;;;;;;;;;5075177;28;20501;-76
2022/09/15 11:18:15;;;;;;;4.40;0.73;;;;;;;;;;5054445;28;20037;-76
2022/09/15 11:20:44;;;;;;;4.05;1.20;;;;;;;;;;5053834;28;20068;-76
2022/09/15 11:23:20;;;;;;;4.78;0.80;;;;;;;;;;5054656;28;20110;-76
2022/09/15 11:25:52;;;;;;;5.60;0.77;;;;;;;;;;5036495;28;20052;-71
2022/09/15 11:28:24;;;;;;;6.53;0.80;;;;;;;;;;5069019;28;20048;-76
2022/09/15 11:30:59;;;;;;;5.10;0.77;;;;;;;;;;5062630;28;20478;-75
2022/09/15 11:33:34;;;;;;;4.18;0.60;;;;;;;;;;5053278;28;20102;-75
2022/09/15 11:36:04;;;;;;;2.43;0.60;;;;;;;;;;5052878;28;20056;-77
2022/09/15 11:38:36;;;;;;;8.48;0.80;;;;;;;;;;5040928;28;20037;-71
2022/09/15 11:41:08;;;;;;;2.90;0.60;;;;;;;;;;5072632;28;20037;-70
2022/09/15 11:43:44;;;;;;;4.78;0.57;;;;;;;;;;5055771;28;20492;-71
2022/09/15 11:46:13;;;;;;;3.22;0.73;;;;;;;;;;5064802;28;20080;-72
2022/09/15 11:48:59;;;;;;;6.10;0.68;;;;;;;;;;5067081;28;20477;-71
2022/09/15 11:51:26;;;;;;;5.05;0.82;;;;;;;;;;5072320;28;20087;-76
2022/09/15 11:53:58;;;;;;;4.20;0.60;;;;;;;;;;5056604;28;20045;-76
2022/09/15 11:56:27;;;;;;;6.38;1.35;;;;;;;;;;5053980;28;20045;-74
2022/09/15 11:59:02;;;;;;;6.25;0.88;;;;;;;;;;5067568;28;20044;-75
2022/09/15 12:01:40;;;;;;;5.65;0.90;;;;;;;;;;5073217;28;20052;-75
2022/09/15 12:04:12;;;;;;;2.95;0.60;;;;;;;;;;5058022;28;20144;-74
2022/09/15 12:06:50;;;;;;;4.60;0.80;;;;;;;;;;5063153;28;20041;-74
2022/09/15 12:09:18;;;;;;;3.65;0.70;;;;;;;;;;5054276;28;20079;-70
2022/09/15 12:11:45;;;;;;;15.70;1.33;;;;;;;;;;5071333;28;20052;-74
2022/09/15 12:14:14;;;;;;;5.75;0.70;;;;;;;;;;5040448;28;20103;-74
2022/09/15 12:16:40;;;;;;;5.13;0.90;;;;;;;;;;5052280;28;20037;-70
2022/09/15 12:19:17;;;;;;;5.30;0.90;;;;;;;;;;5064889;28;20040;-70
2022/09/15 12:21:50;;;;;;;3.20;0.80;;;;;;;;;;5047029;28;20028;-69
2022/09/15 12:24:19;;;;;;;5.30;0.80;;;;;;;;;;5054820;28;20105;-70
2022/09/15 12:26:46;;;;;;;6.28;0.88;;;;;;;;;;5044702;28;20123;-70
2022/09/15 12:29:21;;;;;;;8.32;1.00;;;;;;;;;;5051548;28;20389;-74
2022/09/15 12:31:47;;;;;;;6.13;0.80;;;;;;;;;;5057204;28;20040;-69
2022/09/15 12:34:37;;;;;;;6.40;0.95;;;;;;;;;;5070804;28;20076;-70
2022/09/15 12:37:23;;;;;;;4.78;0.80;;;;;;;;;;5038388;28;20041;-75
2022/09/15 12:39:50;;;;;;;6.28;1.13;;;;;;;;;;5066077;28;20044;-75
2022/09/15 12:42:17;;;;;;;4.22;0.75;;;;;;;;;;5060715;28;20033;-76
2022/09/15 12:44:50;;;;;;;4.30;0.80;;;;;;;;;;5071210;28;20041;-75
2022/09/15 12:47:28;;;;;;;4.03;0.82;;;;;;;;;;5051796;28;20040;-75
2022/09/15 12:49:57;;;;;;;5.32;1.02;;;;;;;;;;5052824;28;20402;-74
2022/09/15 12:52:24;;;;;;;2.40;0.73;;;;;;;;;;5069719;28;20089;-71
2022/09/15 12:55:02;;;;;;;4.40;0.82;;;;;;;;;;5071416;28;20392;-71
2022/09/15 12:57:33;;;;;;;3.97;0.70;;;;;;;;;;5070822;28;20066;-71
2022/09/15 13:00:18;;;;;;;4.78;1.00;;;;;;;;;;5054165;28;20051;-76
2022/09/15 13:02:46;;;;;;;5.05;0.85;;;;;;;;;;5066946;28;20037;-75
2022/09/15 13:05:13;;;;;;;4.68;0.80;;;;;;;;;;5035028;28;20366;-77
2022/09/15 13:08:08;;;;;;;3.45;0.98;;;;;;;;;;5068469;28;20051;-75
2022/09/15 13:10:36;;;;;;;3.93;0.80;;;;;;;;;;5049395;28;20060;-74
2022/09/15 13:13:17;;;;;;;3.05;0.73;;;;;;;;;;5047632;28;20573;-74
2022/09/15 13:15:44;;;;;;;8.48;1.10;;;;;;;;;;5051702;28;20044;-76
2022/09/15 13:18:11;;;;;;;3.83;0.70;;;;;;;;;;5050574;28;20402;-76
2022/09/15 13:20:39;;;;;;;4.50;1.13;;;;;;;;;;5063232;28;20037;-76
2022/09/15 13:23:07;;;;;;;2.72;0.70;;;;;;;;;;5053774;28;20045;-75
2022/09/15 13:25:33;;;;;;;5.07;0.75;;;;;;;;;;5052728;28;20102;-77
2022/09/15 13:28:01;;;;;;;3.42;0.75;;;;;;;;;;5034784;28;20033;-76
2022/09/15 13:30:42;;;;;;;4.20;0.77;;;;;;;;;;5051717;28;20505;-76
2022/09/15 13:33:15;;;;;;;3.22;0.85;;;;;;;;;;5064694;28;20044;-75
2022/09/15 13:35:51;;;;;;;4.90;0.75;;;;;;;;;;5051291;28;20037;-75
2022/09/15 13:38:26;;;;;;;3.90;0.70;;;;;;;;;;5051229;28;20037;-75
2022/09/15 13:40:58;;;;;;;7.05;1.08;;;;;;;;;;5061896;28;20040;-73
2022/09/15 13:43:27;;;;;;;3.08;0.80;;;;;;;;;;5067163;28;20044;-73
2022/09/15 13:45:57;;;;;;;2.63;0.63;;;;;;;;;;5048362;28;20549;-73
2022/09/15 13:48:39;;;;;;;3.75;0.90;;;;;;;;;;5062793;28;20055;-74
2022/09/15 13:51:12;;;;;;;5.82;0.80;;;;;;;;;;5070170;28;20040;-73
2022/09/15 13:53:41;;;;;;;4.57;0.80;;;;;;;;;;5070020;28;20052;-74
2022/09/15 13:56:09;;;;;;;4.57;0.85;;;;;;;;;;5070346;28;20045;-73
2022/09/15 13:58:35;;;;;;;5.07;1.05;;;;;;;;;;5070680;28;20509;-74
2022/09/15 14:01:03;;;;;;;5.70;1.23;;;;;;;;;;5069992;28;20045;-74
2022/09/15 14:03:38;;;;;;;4.97;0.88;;;;;;;;;;5042412;28;20083;-74
2022/09/15 14:06:12;;;;;;;3.17;0.90;;;;;;;;;;5069785;28;20040;-74
2022/09/15 14:08:39;;;;;;;4.28;1.02;;;;;;;;;;5070625;28;20127;-75
2022/09/15 14:11:07;;;;;;;5.22;0.80;;;;;;;;;;5037223;28;20067;-74
2022/09/15 14:13:34;;;;;;;5.40;1.02;;;;;;;;;;5071134;28;20044;-74
2022/09/15 14:16:22;;;;;;;4.63;0.98;;;;;;;;;;5070304;28;20123;-74
2022/09/15 14:18:49;;;;;;;5.50;0.90;;;;;;;;;;5070200;28;20068;-70
2022/09/15 14:21:16;;;;;;;6.43;1.25;;;;;;;;;;5069868;28;20033;-70
2022/09/15 14:23:46;;;;;;;6.65;0.95;;;;;;;;;;5069758;28;20098;-70
2022/09/15 14:26:13;;;;;;;6.93;1.10;;;;;;;;;;5069801;28;20044;-70
2022/09/15 14:28:40;;;;;;;4.70;1.05;;;;;;;;;;5041813;28;20086;-69
2022/09/15 14:31:07;;;;;;;6.38;1.15;;;;;;;;;;5051361;28;20056;-70
2022/09/15 14:33:35;;;;;;;6.25;1.02;;;;;;;;;;5072795;28;20106;-70
2022/09/15 14:36:01;;;;;;;4.53;1.00;;;;;;;;;;5056970;28;20052;-69
2022/09/15 14:38:28;;;;;;;15.23;2.33;;;;;;;;;;5074298;28;20043;-71
2022/09/15 14:40:55;;;;;;;4.93;1.17;;;;;;;;;;5073608;28;20044;-71
2022/09/15 14:43:34;;;;;;;6.35;1.08;;;;;;;;;;5058570;28;20044;-74
2022/09/15 14:46:14;;;;;;;4.97;0.95;;;;;;;;;;5066364;28;20064;-71
2022/09/15 14:48:40;;;;;;;5.60;1.13;;;;;;;;;;5068387;28;20500;-72
2022/09/15 14:51:11;;;;;;;4.35;0.90;;;;;;;;;;5073477;28;20051;-72
2022/09/15 14:53:39;;;;;;;6.05;1.20;;;;;;;;;;5056258;28;20052;-73
2022/09/15 14:56:11;;;;;;;6.85;1.15;;;;;;;;;;5073535;28;20047;-74